createdAt,value
2019-05-26T00:02:00.217Z,12.41
2019-05-26T00:04:28.744Z,12.16
2019-05-26T00:06:57.189Z,12.03
2019-05-26T00:09:25.635Z,11.93
2019-05-26T00:11:54.085Z,11.90
2019-05-26T00:14:22.525Z,11.84
2019-05-26T00:16:50.976Z,11.73
2019-05-26T00:19:19.523Z,11.62
2019-05-26T00:21:47.969Z,11.66
2019-05-26T00:24:16.409Z,11.60
2019-05-26T00:26:44.854Z,11.60
2019-05-26T00:29:13.287Z,11.64
2019-05-26T00:31:41.766Z,11.66
2019-05-26T00:34:10.218Z,11.71
2019-05-26T00:36:38.757Z,11.70
2019-05-26T00:39:07.493Z,11.67
2019-05-26T00:41:35.934Z,11.69
2019-05-26T00:44:05.665Z,11.63
2019-05-26T00:46:34.125Z,11.59
2019-05-26T00:49:06.087Z,11.64
2019-05-26T00:51:34.892Z,11.66
2019-05-26T00:54:04.664Z,11.66
2019-05-26T00:56:33.392Z,11.68
2019-05-26T00:59:01.904Z,11.63
2019-05-26T01:01:30.385Z,11.58
2019-05-26T01:03:58.841Z,11.58
2019-05-26T01:06:27.306Z,11.58
2019-05-26T01:08:55.731Z,11.59
2019-05-26T01:11:24.196Z,11.57
2019-05-26T01:13:52.622Z,11.53
2019-05-26T01:16:21.089Z,11.59
2019-05-26T01:19:01.284Z,11.61
2019-05-26T01:21:30.001Z,11.56
2019-05-26T01:24:17.813Z,11.54
2019-05-26T01:26:46.292Z,11.56
2019-05-26T01:29:14.737Z,11.62
2019-05-26T01:31:43.199Z,11.63
2019-05-26T01:34:11.644Z,11.59
2019-05-26T01:36:59.397Z,11.60
2019-05-26T01:39:27.854Z,11.56
2019-05-26T01:41:56.317Z,11.48
2019-05-26T01:44:24.769Z,11.45
2019-05-26T01:46:53.294Z,11.43
2019-05-26T01:49:21.745Z,11.51
2019-05-26T01:51:50.215Z,11.52
2019-05-26T01:54:18.753Z,11.56
2019-05-26T01:56:47.186Z,11.58
2019-05-26T01:59:15.615Z,11.60
2019-05-26T02:01:44.406Z,11.64
2019-05-26T02:04:12.855Z,11.71
2019-05-26T02:06:41.323Z,11.79
2019-05-26T02:09:09.777Z,11.86
2019-05-26T02:11:38.248Z,11.93
2019-05-26T02:14:06.685Z,11.97
2019-05-26T02:16:54.453Z,11.99
2019-05-26T02:19:22.903Z,12.12
2019-05-26T02:22:10.706Z,12.11
2019-05-26T02:24:51.905Z,12.14
2019-05-26T02:27:20.393Z,12.17
2019-05-26T02:29:48.841Z,12.15
2019-05-26T02:32:17.358Z,12.16
2019-05-26T02:34:45.879Z,12.18
2019-05-26T02:37:14.345Z,12.13
2019-05-26T02:39:45.823Z,12.17
2019-05-26T02:42:14.281Z,12.15
2019-05-26T02:44:42.729Z,12.18
2019-05-26T02:47:11.187Z,12.21
2019-05-26T02:49:39.629Z,12.29
2019-05-26T02:52:08.078Z,12.26
2019-05-26T02:54:37.759Z,12.26
2019-05-26T02:57:09.638Z,12.28
2019-05-26T02:59:41.389Z,12.30
2019-05-26T03:02:09.863Z,12.33
2019-05-26T03:04:38.338Z,12.25
2019-05-26T03:07:06.804Z,12.12
2019-05-26T03:09:35.249Z,12.04
2019-05-26T03:12:03.726Z,12.10
2019-05-26T03:14:33.707Z,12.11
2019-05-26T03:17:02.171Z,12.14
2019-05-26T03:19:31.130Z,12.16
2019-05-26T03:21:59.605Z,12.21
2019-05-26T03:24:28.690Z,12.22
2019-05-26T03:26:57.264Z,12.20
2019-05-26T03:29:25.728Z,12.21
2019-05-26T03:31:54.286Z,12.22
2019-05-26T03:34:22.722Z,12.30
2019-05-26T03:36:51.166Z,12.41
2019-05-26T03:39:19.644Z,12.48
2019-05-26T03:41:48.095Z,12.55
2019-05-26T03:44:16.565Z,12.62
2019-05-26T03:46:45.048Z,12.64
2019-05-26T03:49:13.504Z,12.71
2019-05-26T03:51:41.941Z,12.78
2019-05-26T03:54:10.422Z,12.82
2019-05-26T03:56:38.865Z,12.90
2019-05-26T03:59:07.370Z,12.97
2019-05-26T04:01:35.837Z,13.02
2019-05-26T04:04:04.288Z,13.00
2019-05-26T04:06:32.740Z,13.01
2019-05-26T04:09:01.203Z,13.02
2019-05-26T04:11:29.645Z,13.05
2019-05-26T04:13:58.118Z,13.06
2019-05-26T04:16:26.582Z,13.11
2019-05-26T04:18:55.020Z,13.17
2019-05-26T04:21:23.476Z,13.22
2019-05-26T04:23:51.937Z,13.29
2019-05-26T04:26:20.376Z,13.36
2019-05-26T04:28:48.847Z,13.41
2019-05-26T04:31:17.311Z,13.43
2019-05-26T04:33:45.776Z,13.50
2019-05-26T04:36:14.225Z,13.52
2019-05-26T04:38:42.669Z,13.58
2019-05-26T04:41:11.158Z,13.62
2019-05-26T04:43:39.615Z,13.63
2019-05-26T04:46:08.055Z,13.67
2019-05-26T04:48:36.520Z,13.73
2019-05-26T04:51:05.052Z,13.78
2019-05-26T04:53:33.490Z,13.81
2019-05-26T04:56:01.959Z,13.86
2019-05-26T04:58:30.417Z,13.94
2019-05-26T05:00:58.877Z,13.99
2019-05-26T05:03:27.322Z,13.98
2019-05-26T05:05:55.779Z,13.98
2019-05-26T05:08:24.277Z,14.01
2019-05-26T05:10:52.707Z,14.04
2019-05-26T05:13:24.794Z,14.08
2019-05-26T05:15:51.486Z,14.11
2019-05-26T05:18:19.965Z,14.15
2019-05-26T05:20:48.439Z,14.19
2019-05-26T05:23:16.881Z,14.24
2019-05-26T05:25:45.333Z,14.29
2019-05-26T05:28:13.776Z,14.37
2019-05-26T05:30:42.256Z,14.45
2019-05-26T05:33:10.705Z,14.52
2019-05-26T05:35:39.184Z,14.57
2019-05-26T05:38:07.636Z,14.64
2019-05-26T05:40:36.077Z,14.72
2019-05-26T05:43:04.532Z,14.82
2019-05-26T05:45:32.985Z,14.86
2019-05-26T05:48:01.433Z,14.92
2019-05-26T05:50:29.890Z,14.95
2019-05-26T05:52:58.340Z,14.95
2019-05-26T05:55:27.235Z,14.98
2019-05-26T05:57:55.744Z,15.01
2019-05-26T06:00:26.612Z,14.99
2019-05-26T06:02:55.317Z,15.02
2019-05-26T06:05:23.801Z,15.11
2019-05-26T06:07:52.256Z,15.12
2019-05-26T06:10:23.116Z,15.21
2019-05-26T06:12:51.570Z,15.31
2019-05-26T06:15:21.360Z,15.45
2019-05-26T06:17:49.940Z,15.61
2019-05-26T06:20:18.401Z,15.91
2019-05-26T06:22:46.849Z,16.16
2019-05-26T06:25:15.305Z,16.34
2019-05-26T06:27:44.504Z,16.47
2019-05-26T06:30:13.098Z,16.65
2019-05-26T06:32:41.540Z,16.89
2019-05-26T06:35:10.004Z,17.16
2019-05-26T06:37:38.579Z,17.44
2019-05-26T06:40:07.111Z,17.99
2019-05-26T06:42:35.537Z,18.14
2019-05-26T06:45:04.825Z,18.08
2019-05-26T06:47:33.280Z,18.08
2019-05-26T06:50:01.751Z,18.08
2019-05-26T06:52:30.560Z,18.33
2019-05-26T06:54:59.357Z,18.51
2019-05-26T06:57:27.786Z,18.52
2019-05-26T06:59:56.242Z,18.55
2019-05-26T07:02:24.668Z,18.66
2019-05-26T07:04:53.110Z,18.98
2019-05-26T07:07:24.621Z,18.93
2019-05-26T07:09:53.178Z,18.70
2019-05-26T07:12:21.670Z,18.83
2019-05-26T07:14:50.153Z,19.41
2019-05-26T07:17:20.668Z,20.01
2019-05-26T07:19:48.764Z,19.83
2019-05-26T07:22:17.226Z,19.31
2019-05-26T07:24:45.678Z,19.06
2019-05-26T07:27:14.129Z,19.08
2019-05-26T07:29:42.838Z,19.04
2019-05-26T07:32:11.283Z,19.21
2019-05-26T07:34:40.039Z,19.11
2019-05-26T07:37:08.466Z,19.14
2019-05-26T07:39:36.909Z,19.16
2019-05-26T07:42:10.503Z,19.29
2019-05-26T07:44:35.521Z,19.32
2019-05-26T07:47:03.965Z,19.45
2019-05-26T07:49:32.400Z,19.77
2019-05-26T07:52:00.846Z,20.10
2019-05-26T07:54:29.576Z,20.36
2019-05-26T07:56:58.021Z,20.57
2019-05-26T07:59:26.442Z,20.66
2019-05-26T08:01:54.931Z,20.84
2019-05-26T08:04:23.378Z,20.98
2019-05-26T08:06:51.864Z,21.29
2019-05-26T08:09:20.306Z,21.31
2019-05-26T08:11:48.833Z,21.24
2019-05-26T08:14:17.452Z,21.48
2019-05-26T08:16:45.892Z,21.67
2019-05-26T08:19:14.327Z,21.62
2019-05-26T08:21:42.769Z,21.77
2019-05-26T08:24:11.221Z,22.18
2019-05-26T08:26:39.633Z,22.29
2019-05-26T08:29:08.080Z,22.36
2019-05-26T08:31:36.512Z,21.90
2019-05-26T08:34:04.967Z,21.61
2019-05-26T08:36:33.389Z,21.63
2019-05-26T08:39:01.942Z,21.57
2019-05-26T08:41:30.727Z,21.35
2019-05-26T08:43:59.161Z,21.43
2019-05-26T08:46:27.588Z,21.77
2019-05-26T08:48:56.086Z,22.04
2019-05-26T08:51:24.504Z,22.32
2019-05-26T08:53:52.929Z,22.56
2019-05-26T08:56:21.392Z,22.53
2019-05-26T08:58:49.830Z,22.27
2019-05-26T09:01:18.603Z,21.87
2019-05-26T09:03:47.292Z,21.70
2019-05-26T09:06:16.005Z,21.78
2019-05-26T09:13:34.977Z,21.36
2019-05-26T09:16:03.434Z,20.66
2019-05-26T09:18:31.882Z,20.56
2019-05-26T09:21:00.412Z,20.56
2019-05-26T09:23:28.856Z,20.56
2019-05-26T09:25:57.302Z,20.46
2019-05-26T09:28:25.758Z,20.62
2019-05-26T09:30:54.222Z,20.64
2019-05-26T09:33:22.744Z,20.71
2019-05-26T09:35:51.229Z,20.72
2019-05-26T09:38:19.686Z,20.61
2019-05-26T09:40:48.124Z,20.66
2019-05-26T09:43:16.915Z,20.73
2019-05-26T09:45:45.476Z,20.66
2019-05-26T09:48:14.242Z,20.69
2019-05-26T09:50:42.701Z,20.89
2019-05-26T09:53:11.523Z,20.81
2019-05-26T09:55:40.008Z,20.77
2019-05-26T09:58:08.445Z,20.78
2019-05-26T10:00:36.909Z,20.99
2019-05-26T10:03:05.672Z,21.13
2019-05-26T10:05:34.125Z,21.38
2019-05-26T10:08:02.838Z,21.59
2019-05-26T10:10:31.306Z,21.32
2019-05-26T10:12:59.756Z,21.30
2019-05-26T10:15:28.209Z,21.22
2019-05-26T10:17:56.662Z,21.49
2019-05-26T10:20:25.110Z,21.49
2019-05-26T10:22:53.815Z,21.58
2019-05-26T10:25:22.253Z,21.45
2019-05-26T10:27:50.757Z,21.36
2019-05-26T10:30:19.208Z,21.33
2019-05-26T10:32:47.746Z,21.09
2019-05-26T10:35:16.172Z,21.10
2019-05-26T10:37:44.664Z,21.11
2019-05-26T10:40:13.186Z,21.30
2019-05-26T10:42:41.646Z,21.50
2019-05-26T10:45:10.113Z,21.68
2019-05-26T10:47:38.572Z,21.62
2019-05-26T10:50:07.716Z,21.39
2019-05-26T10:52:36.188Z,21.50
2019-05-26T10:55:04.722Z,21.77
2019-05-26T10:57:33.164Z,21.67
2019-05-26T11:00:01.682Z,21.43
2019-05-26T11:02:30.337Z,21.37
2019-05-26T11:04:58.809Z,21.48
2019-05-26T11:07:27.312Z,21.34
2019-05-26T11:09:55.749Z,21.08
2019-05-26T11:12:24.198Z,21.16
2019-05-26T11:14:53.537Z,21.31
2019-05-26T11:17:21.993Z,21.48
2019-05-26T11:19:50.490Z,21.52
2019-05-26T11:22:19.077Z,21.39
2019-05-26T11:24:47.529Z,21.38
2019-05-26T11:27:16.050Z,21.40
2019-05-26T11:29:44.509Z,21.34
2019-05-26T11:32:12.957Z,21.24
2019-05-26T11:34:41.405Z,21.25
2019-05-26T11:37:10.205Z,21.30
2019-05-26T11:39:38.735Z,21.43
2019-05-26T11:42:13.489Z,21.72
2019-05-26T11:44:37.617Z,21.57
2019-05-26T11:47:06.077Z,21.67
2019-05-26T11:49:34.562Z,21.64
2019-05-26T11:52:03.287Z,21.64
2019-05-26T11:54:34.414Z,21.70
2019-05-26T11:57:01.938Z,21.53
2019-05-26T11:59:30.400Z,21.24
2019-05-26T12:01:58.842Z,21.15
2019-05-26T12:04:27.287Z,21.32
2019-05-26T12:06:55.745Z,21.36
2019-05-26T12:09:24.197Z,21.48
2019-05-26T12:11:52.672Z,21.58
2019-05-26T12:14:34.305Z,21.80
2019-05-26T12:16:51.532Z,21.78
2019-05-26T12:19:20.009Z,21.93
2019-05-26T12:21:48.461Z,21.85
2019-05-26T12:24:16.899Z,22.03
2019-05-26T12:26:45.413Z,22.11
2019-05-26T12:29:13.906Z,21.84
2019-05-26T12:31:42.421Z,21.83
2019-05-26T12:34:10.866Z,21.88
2019-05-26T12:36:39.629Z,22.06
2019-05-26T12:39:08.754Z,22.32
2019-05-26T12:41:37.570Z,22.28
2019-05-26T12:44:06.160Z,21.99
2019-05-26T12:46:34.617Z,21.97
2019-05-26T12:49:03.197Z,21.88
2019-05-26T12:51:31.663Z,22.06
2019-05-26T12:54:00.387Z,22.11
2019-05-26T12:56:28.889Z,22.25
2019-05-26T12:58:57.323Z,22.34
2019-05-26T13:01:25.792Z,22.32
2019-05-26T13:03:54.336Z,22.37
2019-05-26T13:06:22.785Z,22.39
2019-05-26T13:08:51.228Z,22.27
2019-05-26T13:11:22.674Z,22.34
2019-05-26T13:13:49.967Z,22.37
2019-05-26T13:16:20.544Z,22.29
2019-05-26T13:18:49.038Z,22.41
2019-05-26T13:21:17.500Z,22.44
2019-05-26T13:23:46.193Z,22.47
2019-05-26T13:26:21.873Z,22.41
2019-05-26T13:28:53.533Z,22.32
2019-05-26T13:31:21.974Z,22.58
2019-05-26T13:33:50.754Z,22.75
2019-05-26T13:36:19.215Z,22.38
2019-05-26T13:38:47.645Z,22.63
2019-05-26T13:41:16.072Z,22.54
2019-05-26T13:43:44.508Z,22.35
2019-05-26T13:46:12.965Z,22.11
2019-05-26T13:48:41.437Z,22.64
2019-05-26T13:51:09.911Z,22.68
2019-05-26T13:53:38.363Z,22.48
2019-05-26T13:56:06.806Z,22.42
2019-05-26T13:58:35.257Z,22.44
2019-05-26T14:01:03.708Z,22.52
2019-05-26T14:03:32.153Z,22.36
2019-05-26T14:06:00.628Z,22.28
2019-05-26T14:08:29.055Z,22.25
2019-05-26T14:10:57.510Z,22.32
2019-05-26T14:13:25.941Z,22.13
2019-05-26T14:15:55.352Z,21.98
2019-05-26T14:18:23.805Z,21.90
2019-05-26T14:20:52.270Z,21.81
2019-05-26T14:23:20.773Z,21.58
2019-05-26T14:25:49.237Z,21.62
2019-05-26T14:28:17.660Z,21.47
2019-05-26T14:30:46.405Z,21.81
2019-05-26T14:33:14.852Z,21.66
2019-05-26T14:35:43.324Z,21.68
2019-05-26T14:38:11.784Z,21.74
2019-05-26T14:40:40.207Z,21.97
2019-05-26T14:43:08.629Z,21.95
2019-05-26T14:45:51.954Z,22.06
2019-05-26T14:48:07.209Z,21.91
2019-05-26T14:50:35.654Z,21.60
2019-05-26T14:53:04.084Z,21.54
2019-05-26T14:55:32.508Z,21.44
2019-05-26T14:58:14.279Z,21.80
2019-05-26T15:00:31.404Z,22.10
2019-05-26T15:02:59.849Z,21.92
2019-05-26T15:05:28.716Z,21.96
2019-05-26T15:07:57.139Z,22.22
2019-05-26T15:10:25.579Z,22.42
2019-05-26T15:12:54.100Z,22.39
2019-05-26T15:15:22.585Z,22.13
2019-05-26T15:17:51.429Z,22.35
2019-05-26T15:20:19.923Z,22.52
2019-05-26T15:22:48.462Z,22.76
2019-05-26T15:25:16.901Z,23.29
2019-05-26T15:27:46.635Z,23.30
2019-05-26T15:30:15.406Z,23.51
2019-05-26T15:32:43.837Z,23.29
2019-05-26T15:35:12.375Z,23.46
2019-05-26T15:37:40.905Z,23.67
2019-05-26T15:40:09.930Z,23.62
2019-05-26T15:42:38.375Z,23.95
2019-05-26T15:45:07.142Z,24.16
2019-05-26T15:47:35.602Z,23.69
2019-05-26T15:50:04.604Z,24.49
2019-05-26T15:52:33.042Z,24.32
2019-05-26T15:55:01.531Z,24.11
2019-05-26T15:57:29.949Z,23.91
2019-05-26T15:59:58.414Z,24.34
2019-05-26T16:02:26.845Z,24.50
2019-05-26T16:04:58.695Z,23.80
2019-05-26T16:07:25.901Z,24.39
2019-05-26T16:09:54.347Z,23.69
2019-05-26T16:12:22.916Z,23.15
2019-05-26T16:14:51.382Z,22.52
2019-05-26T16:17:20.245Z,22.02
2019-05-26T16:19:48.684Z,21.73
2019-05-26T16:22:17.149Z,21.61
2019-05-26T16:24:45.624Z,21.22
2019-05-26T16:27:19.222Z,20.94
2019-05-26T16:29:46.716Z,20.78
2019-05-26T16:32:18.643Z,20.73
2019-05-26T16:34:45.305Z,20.50
2019-05-26T16:37:13.896Z,20.17
2019-05-26T16:39:42.330Z,20.36
2019-05-26T16:42:10.940Z,20.06
2019-05-26T16:44:39.795Z,20.35
2019-05-26T16:47:08.246Z,20.15
2019-05-26T16:49:36.693Z,20.18
2019-05-26T16:52:05.312Z,20.16
2019-05-26T16:54:33.748Z,20.00
2019-05-26T16:57:05.131Z,19.84
2019-05-26T16:59:34.268Z,19.55
2019-05-26T17:02:02.799Z,19.47
2019-05-26T17:04:31.241Z,19.35
2019-05-26T17:06:59.746Z,19.29
2019-05-26T17:09:28.327Z,19.23
2019-05-26T17:11:57.127Z,19.16
2019-05-26T17:14:25.785Z,19.15
2019-05-26T17:16:54.228Z,19.11
2019-05-26T17:19:22.712Z,18.97
2019-05-26T17:21:51.338Z,18.95
2019-05-26T17:24:20.120Z,18.98
2019-05-26T17:26:48.554Z,19.11
2019-05-26T17:29:17.027Z,19.04
2019-05-26T17:31:45.523Z,18.85
2019-05-26T17:34:13.965Z,18.86
2019-05-26T17:36:42.413Z,18.49
2019-05-26T17:39:10.889Z,18.47
2019-05-26T17:41:39.344Z,18.23
2019-05-26T17:44:07.880Z,18.20
2019-05-26T17:46:36.368Z,18.04
2019-05-26T17:49:04.806Z,17.95
2019-05-26T17:51:33.339Z,17.94
2019-05-26T17:54:01.874Z,17.90
2019-05-26T17:56:30.328Z,17.91
2019-05-26T17:58:58.782Z,17.87
2019-05-26T18:01:27.228Z,17.83
2019-05-26T18:03:55.653Z,17.88
2019-05-26T18:06:24.112Z,17.81
2019-05-26T18:08:52.573Z,17.84
2019-05-26T18:11:21.318Z,17.77
2019-05-26T18:13:49.760Z,17.52
2019-05-26T18:16:18.291Z,17.44
2019-05-26T18:18:46.837Z,17.17
2019-05-26T18:21:15.306Z,17.11
2019-05-26T18:23:55.526Z,17.07
2019-05-26T18:26:24.028Z,17.03
2019-05-26T18:28:52.492Z,16.89
2019-05-26T18:31:20.995Z,16.86
2019-05-26T18:33:49.474Z,16.87
2019-05-26T18:36:17.924Z,16.74
2019-05-26T18:38:46.382Z,16.40
2019-05-26T18:41:14.836Z,16.29
2019-05-26T18:43:43.586Z,16.21
2019-05-26T18:46:12.094Z,16.01
2019-05-26T18:48:40.576Z,15.86
2019-05-26T18:51:09.056Z,15.86
2019-05-26T18:53:37.531Z,15.78
2019-05-26T18:56:05.990Z,15.74
2019-05-26T18:58:34.450Z,15.68
2019-05-26T19:01:02.913Z,15.71
2019-05-26T19:03:31.362Z,15.80
2019-05-26T19:05:59.830Z,15.74
2019-05-26T19:08:28.309Z,15.77
2019-05-26T19:10:56.798Z,15.80
2019-05-26T19:13:25.280Z,15.80
2019-05-26T19:15:53.775Z,15.78
2019-05-26T19:18:22.614Z,15.59
2019-05-26T19:20:51.145Z,15.58
2019-05-26T19:23:19.602Z,15.44
2019-05-26T19:25:48.130Z,15.47
2019-05-26T19:28:16.636Z,15.48
2019-05-26T19:30:45.805Z,15.44
2019-05-26T19:33:14.654Z,15.43
2019-05-26T19:35:43.128Z,15.37
2019-05-26T19:38:11.663Z,15.30
2019-05-26T19:40:40.123Z,15.23
2019-05-26T19:43:08.553Z,15.13
2019-05-26T19:45:37.025Z,15.12
2019-05-26T19:48:05.561Z,15.06
2019-05-26T19:50:34.248Z,15.06
2019-05-26T19:53:02.934Z,15.01
2019-05-26T19:55:31.373Z,15.02
2019-05-26T19:57:59.819Z,15.02
2019-05-26T20:00:28.337Z,15.01
2019-05-26T20:02:56.785Z,15.10
2019-05-26T20:05:25.259Z,15.04
2019-05-26T20:07:53.786Z,15.01
2019-05-26T20:10:22.533Z,14.99
2019-05-26T20:12:51.215Z,15.00
2019-05-26T20:15:19.793Z,15.02
2019-05-26T20:17:48.274Z,15.03
2019-05-26T20:20:16.769Z,15.00
2019-05-26T20:22:45.232Z,15.00
2019-05-26T20:25:14.210Z,15.01
2019-05-26T20:27:42.697Z,15.00
2019-05-26T20:30:11.497Z,14.96
2019-05-26T20:32:40.353Z,14.99
2019-05-26T20:35:09.491Z,15.04
2019-05-26T20:37:37.956Z,15.06
2019-05-26T20:40:06.552Z,15.10
2019-05-26T20:42:35.167Z,15.08
2019-05-26T20:45:03.649Z,15.07
2019-05-26T20:47:32.103Z,15.09
2019-05-26T20:50:00.729Z,15.10
2019-05-26T20:52:29.210Z,15.03
2019-05-26T20:54:57.863Z,15.08
2019-05-26T20:57:26.378Z,15.03
2019-05-26T20:59:54.837Z,15.04
2019-05-26T21:02:23.304Z,15.07
2019-05-26T21:04:51.781Z,15.00
2019-05-26T21:07:20.320Z,15.04
2019-05-26T21:09:48.774Z,15.09
2019-05-26T21:12:17.450Z,15.13
2019-05-26T21:14:45.910Z,15.17
2019-05-26T21:17:14.366Z,15.16
2019-05-26T21:19:54.787Z,15.18
2019-05-26T21:22:23.562Z,15.19
2019-05-26T21:24:52.101Z,15.26
2019-05-26T21:27:23.658Z,15.17
2019-05-26T21:29:52.228Z,15.22
2019-05-26T21:32:20.744Z,15.30
2019-05-26T21:34:49.197Z,15.19
2019-05-26T21:37:17.688Z,15.27
2019-05-26T21:39:46.248Z,15.23
2019-05-26T21:42:16.105Z,15.25
2019-05-26T21:44:44.648Z,15.24
2019-05-26T21:47:13.140Z,15.23
2019-05-26T21:49:41.598Z,15.19
2019-05-26T21:52:10.059Z,15.10
2019-05-26T21:54:41.214Z,15.13
2019-05-26T21:57:09.002Z,15.08
2019-05-26T21:59:37.492Z,15.12
2019-05-26T22:02:06.029Z,15.12
2019-05-26T22:04:34.505Z,15.18
2019-05-26T22:07:03.151Z,15.18
2019-05-26T22:09:31.842Z,15.11
2019-05-26T22:12:00.288Z,15.09
2019-05-26T22:14:28.780Z,15.04
2019-05-26T22:16:57.232Z,15.01
2019-05-26T22:19:25.688Z,14.92
2019-05-26T22:21:54.129Z,14.89
2019-05-26T22:24:22.590Z,14.82
2019-05-26T22:26:51.131Z,14.79
2019-05-26T22:29:19.728Z,14.77
2019-05-26T22:31:48.521Z,14.75
2019-05-26T22:34:16.996Z,14.68
2019-05-26T22:36:45.446Z,14.68
2019-05-26T22:39:13.877Z,14.60
2019-05-26T22:41:42.314Z,14.57
2019-05-26T22:44:10.766Z,14.58
2019-05-26T22:46:39.192Z,14.55
2019-05-26T22:49:07.945Z,14.50
2019-05-26T22:51:36.408Z,14.53
2019-05-26T22:54:04.861Z,14.50
2019-05-26T22:56:33.311Z,14.60
2019-05-26T22:59:01.766Z,14.56
2019-05-26T23:01:30.216Z,14.60
2019-05-26T23:03:58.650Z,14.59
2019-05-26T23:06:27.110Z,14.64
2019-05-26T23:08:55.558Z,14.65
2019-05-26T23:11:43.337Z,14.60
2019-05-26T23:14:31.118Z,14.54
2019-05-26T23:16:59.573Z,14.58
2019-05-26T23:19:28.015Z,14.45
2019-05-26T23:21:56.453Z,14.40
2019-05-26T23:24:25.243Z,14.41
2019-05-26T23:26:53.741Z,14.48
2019-05-26T23:29:22.257Z,14.49
2019-05-26T23:31:50.817Z,14.51
2019-05-26T23:34:19.337Z,14.43
2019-05-26T23:36:47.817Z,14.48
2019-05-26T23:39:16.346Z,14.49
2019-05-26T23:41:44.848Z,14.50
2019-05-26T23:44:13.329Z,14.56
2019-05-26T23:46:41.836Z,14.56
2019-05-26T23:49:10.627Z,14.52
2019-05-26T23:51:39.068Z,14.60
2019-05-26T23:54:07.532Z,14.50
2019-05-26T23:56:35.965Z,14.49
2019-05-26T23:59:04.420Z,14.47
